createdAt,value
2022-11-23T00:00:20.027Z,0.45
2022-11-23T00:05:42.917Z,0.46
2022-11-23T00:10:45.794Z,0.45
2022-11-23T00:15:48.651Z,0.40
2022-11-23T00:20:51.637Z,0.31
2022-11-23T00:25:54.524Z,0.22
2022-11-23T00:30:57.560Z,0.10
2022-11-23T00:36:27.706Z,0.03
2022-11-23T00:41:30.749Z,0.02
2022-11-23T00:46:33.659Z,0.07
2022-11-23T00:51:37.904Z,0.03
2022-11-23T00:56:40.794Z,0.02
2022-11-23T01:01:43.728Z,0.04
2022-11-23T01:06:46.668Z,0.07
2022-11-23T01:11:49.637Z,0.08
2022-11-23T01:16:52.577Z,0.06
2022-11-23T01:21:55.562Z,0.03
2022-11-23T01:26:58.465Z,-0.05
2022-11-23T01:32:01.711Z,-0.09
2022-11-23T01:37:04.585Z,-0.14
2022-11-23T01:42:08.753Z,-0.10
2022-11-23T01:47:12.175Z,0.04
2022-11-23T01:52:25.942Z,0.11
2022-11-23T01:57:38.917Z,0.05
2022-11-23T02:02:52.064Z,-0.01
2022-11-23T02:07:55.756Z,-0.09
2022-11-23T02:13:06.370Z,-0.12
2022-11-23T02:18:27.271Z,-0.14
2022-11-23T02:23:42.441Z,-0.03
2022-11-23T02:28:52.470Z,0.07
2022-11-23T02:33:55.338Z,0.12
2022-11-23T02:39:03.670Z,0.08
2022-11-23T02:44:21.170Z,-0.07
2022-11-23T02:49:25.180Z,-0.24
2022-11-23T02:54:28.049Z,-0.33
2022-11-23T02:59:32.953Z,-0.29
2022-11-23T03:04:36.250Z,-0.27
2022-11-23T03:09:39.118Z,-0.29
2022-11-23T03:14:42.037Z,-0.24
2022-11-23T03:19:44.924Z,-0.15
2022-11-23T03:24:47.858Z,-0.04
2022-11-23T03:29:50.753Z,0.11
2022-11-23T03:34:53.613Z,0.22
2022-11-23T03:39:56.505Z,0.13
2022-11-23T03:44:59.386Z,0.05
2022-11-23T03:50:02.215Z,-0.05
2022-11-23T03:55:05.916Z,-0.20
2022-11-23T04:00:10.228Z,-0.33
2022-11-23T04:05:13.788Z,-0.34
2022-11-23T04:10:19.232Z,-0.22
2022-11-23T04:15:22.113Z,-0.21
2022-11-23T04:20:25.287Z,-0.37
2022-11-23T04:25:28.172Z,-0.47
2022-11-23T04:30:31.051Z,-0.48
2022-11-23T04:35:34.426Z,-0.42
2022-11-23T04:40:37.607Z,-0.44
2022-11-23T04:45:41.047Z,-0.52
2022-11-23T04:50:46.767Z,-0.50
2022-11-23T04:55:50.057Z,-0.58
2022-11-23T05:00:53.011Z,-0.71
2022-11-23T05:05:59.307Z,-0.82
2022-11-23T05:11:02.211Z,-0.88
2022-11-23T05:16:05.212Z,-0.87
2022-11-23T05:21:08.320Z,-0.92
2022-11-23T05:26:11.299Z,-0.92
2022-11-23T05:31:14.549Z,-0.81
2022-11-23T05:36:17.396Z,-0.74
2022-11-23T05:41:20.330Z,-0.59
2022-11-23T05:46:23.208Z,-0.46
2022-11-23T05:51:26.173Z,-0.38
2022-11-23T05:56:29.233Z,-0.31
2022-11-23T06:01:33.276Z,-0.45
2022-11-23T06:06:36.191Z,-0.63
2022-11-23T06:11:39.234Z,-0.77
2022-11-23T06:16:42.414Z,-0.82
2022-11-23T06:21:50.241Z,-0.78
2022-11-23T06:26:54.634Z,-0.87
2022-11-23T06:31:57.627Z,-0.92
2022-11-23T06:37:00.717Z,-0.87
2022-11-23T06:42:30.947Z,-0.77
2022-11-23T06:47:29.103Z,-0.70
2022-11-23T06:52:32.357Z,-0.65
2022-11-23T06:57:35.342Z,-0.72
2022-11-23T07:02:39.176Z,-0.71
2022-11-23T07:07:42.529Z,-0.61
2022-11-23T07:12:46.439Z,-0.50
2022-11-23T07:17:49.572Z,-0.44
2022-11-23T07:23:01.966Z,-0.58
2022-11-23T07:28:07.756Z,-0.69
2022-11-23T07:33:13.263Z,-0.67
2022-11-23T07:38:16.501Z,-0.68
2022-11-23T07:43:19.724Z,-0.70
2022-11-23T07:48:23.699Z,-0.63
2022-11-23T07:53:27.417Z,-0.50
2022-11-23T07:58:33.091Z,-0.35
2022-11-23T08:03:36.350Z,-0.24
2022-11-23T08:08:40.299Z,-0.29
2022-11-23T08:13:43.344Z,-0.52
2022-11-23T08:18:46.305Z,-0.67
2022-11-23T08:23:49.256Z,-0.61
2022-11-23T08:28:52.567Z,-0.36
2022-11-23T08:33:58.904Z,-0.30
2022-11-23T08:39:06.240Z,-0.28
2022-11-23T08:44:11.401Z,-0.25
2022-11-23T08:49:14.514Z,-0.35
2022-11-23T08:54:17.844Z,-0.50
2022-11-23T08:59:21.316Z,-0.71
2022-11-23T09:04:27.811Z,-0.78
2022-11-23T09:09:31.492Z,-0.76
2022-11-23T09:14:35.319Z,-0.78
2022-11-23T09:19:38.641Z,-0.78
2022-11-23T09:24:41.762Z,-0.72
2022-11-23T09:29:45.056Z,-0.52
2022-11-23T09:34:48.357Z,-0.44
2022-11-23T09:39:51.277Z,-0.45
2022-11-23T09:45:24.540Z,-0.67
2022-11-23T09:50:45.642Z,-0.85
2022-11-23T09:55:53.853Z,-0.96
2022-11-23T10:01:04.632Z,-0.96
2022-11-23T10:06:21.222Z,-0.90
2022-11-23T10:11:44.406Z,-0.85
2022-11-23T10:17:27.566Z,-0.73
2022-11-23T10:23:02.213Z,-0.70
2022-11-23T10:28:15.775Z,-0.68
2022-11-23T10:33:32.420Z,-0.68
2022-11-23T10:38:35.680Z,-0.61
2022-11-23T10:43:50.200Z,-0.54
2022-11-23T10:48:54.497Z,-0.49
2022-11-23T10:54:05.508Z,-0.49
2022-11-23T10:59:37.459Z,-0.38
2022-11-23T11:04:41.420Z,-0.13
2022-11-23T11:09:51.142Z,-0.12
2022-11-23T11:15:10.953Z,-0.07
2022-11-23T11:20:34.208Z,-0.06
2022-11-23T11:25:39.568Z,-0.12
2022-11-23T11:31:09.948Z,-0.13
2022-11-23T11:36:16.474Z,-0.29
2022-11-23T11:41:25.392Z,-0.48
2022-11-23T11:46:38.491Z,-0.64
2022-11-23T11:51:54.071Z,-0.62
2022-11-23T11:57:27.992Z,-0.52
2022-11-23T12:02:57.452Z,-0.47
2022-11-23T12:08:15.594Z,-0.43
2022-11-23T12:13:24.727Z,-0.22
2022-11-23T12:18:56.705Z,-0.17
2022-11-23T12:24:31.764Z,0.02
2022-11-23T12:29:56.565Z,0.01
2022-11-23T12:35:30.731Z,-0.09
2022-11-23T12:41:01.305Z,-0.01
2022-11-23T12:46:48.533Z,0.04
2022-11-23T12:52:35.062Z,0.16
2022-11-23T12:57:51.433Z,0.07
2022-11-23T13:02:57.003Z,-0.08
2022-11-23T13:08:44.851Z,-0.27
2022-11-23T13:15:08.636Z,-0.35
2022-11-23T13:20:37.766Z,-0.37
2022-11-23T13:25:41.142Z,-0.43
2022-11-23T13:31:14.604Z,-0.60
2022-11-23T13:36:18.491Z,-0.67
2022-11-23T13:41:33.710Z,-0.63
2022-11-23T13:46:37.950Z,-0.58
2022-11-23T13:51:41.184Z,-0.57
2022-11-23T13:56:46.918Z,-0.54
2022-11-23T14:02:09.589Z,-0.38
2022-11-23T14:07:29.531Z,-0.17
2022-11-23T14:12:44.856Z,-0.03
2022-11-23T14:17:47.721Z,-0.11
2022-11-23T14:23:23.725Z,-0.34
2022-11-23T14:28:49.069Z,-0.30
2022-11-23T14:34:13.008Z,-0.26
2022-11-23T14:40:14.582Z,-0.32
2022-11-23T14:45:22.935Z,-0.41
2022-11-23T14:50:29.578Z,-0.56
2022-11-23T14:55:33.421Z,-0.56
2022-11-23T15:00:41.183Z,-0.37
2022-11-23T15:05:51.026Z,-0.27
2022-11-23T15:11:08.182Z,-0.19
2022-11-23T15:16:14.212Z,-0.26
2022-11-23T15:21:27.642Z,-0.29
2022-11-23T15:26:49.513Z,-0.30
2022-11-23T15:32:14.122Z,-0.42
2022-11-23T15:37:18.983Z,-0.43
2022-11-23T15:42:25.913Z,-0.57
2022-11-23T15:47:31.300Z,-0.66
2022-11-23T15:52:38.338Z,-0.70
2022-11-23T15:57:42.833Z,-0.61
2022-11-23T16:02:46.182Z,-0.53
2022-11-23T16:08:02.633Z,-0.56
2022-11-23T16:13:09.224Z,-0.69
2022-11-23T16:18:20.636Z,-0.74
2022-11-23T16:23:30.022Z,-0.74
2022-11-23T16:28:38.851Z,-0.76
2022-11-23T16:33:41.794Z,-0.72
2022-11-23T16:38:45.464Z,-0.72
2022-11-23T16:43:54.159Z,-0.68
2022-11-23T16:48:59.299Z,-0.65
2022-11-23T16:54:13.499Z,-0.64
2022-11-23T16:59:19.763Z,-0.59
2022-11-23T17:04:22.865Z,-0.61
2022-11-23T17:09:25.903Z,-0.60
2022-11-23T17:14:34.354Z,-0.49
2022-11-23T17:19:37.527Z,-0.46
2022-11-23T17:24:40.490Z,-0.46
2022-11-23T17:29:45.265Z,-0.43
2022-11-23T17:34:48.219Z,-0.41
2022-11-23T17:39:51.690Z,-0.56
2022-11-23T17:44:55.401Z,-0.64
2022-11-23T17:49:58.760Z,-0.69
2022-11-23T17:55:02.772Z,-0.64
2022-11-23T18:05:41.276Z,-0.54
2022-11-23T18:10:44.366Z,-0.51
2022-11-23T18:15:47.546Z,-0.47
2022-11-23T18:20:50.501Z,-0.41
2022-11-23T18:26:01.848Z,-0.36
2022-11-23T18:31:05.348Z,-0.36
2022-11-23T18:36:10.661Z,-0.42
2022-11-23T18:41:16.737Z,-0.54
2022-11-23T18:46:20.173Z,-0.62
2022-11-23T18:51:23.670Z,-0.59
2022-11-23T18:56:26.710Z,-0.56
2022-11-23T19:01:30.201Z,-0.62
2022-11-23T19:06:33.448Z,-0.58
2022-11-23T19:11:36.376Z,-0.60
2022-11-23T19:16:39.374Z,-0.69
2022-11-23T19:21:43.253Z,-0.76
2022-11-23T19:26:46.142Z,-0.82
2022-11-23T19:31:54.548Z,-0.90
2022-11-23T19:36:57.751Z,-0.96
2022-11-23T19:42:00.746Z,-0.96
2022-11-23T19:47:07.263Z,-0.92
2022-11-23T19:52:13.255Z,-0.95
2022-11-23T19:57:16.224Z,-1.00
2022-11-23T20:02:24.908Z,-0.99
2022-11-23T20:07:27.800Z,-0.98
2022-11-23T20:12:30.698Z,-1.11
2022-11-23T20:17:33.656Z,-1.13
2022-11-23T20:22:36.867Z,-1.06
2022-11-23T20:27:40.914Z,-0.98
2022-11-23T20:32:44.663Z,-1.02
2022-11-23T20:37:48.553Z,-1.14
2022-11-23T20:42:51.450Z,-1.13
2022-11-23T20:47:54.938Z,-1.07
2022-11-23T20:53:03.367Z,-1.02
2022-11-23T20:58:06.897Z,-0.87
2022-11-23T21:03:10.079Z,-0.82
2022-11-23T21:08:22.342Z,-0.93
2022-11-23T21:13:49.825Z,-1.05
2022-11-23T21:18:53.020Z,-1.19
2022-11-23T21:23:55.968Z,-1.17
2022-11-23T21:29:00.966Z,-1.22
2022-11-23T21:34:10.675Z,-1.19
2022-11-23T21:39:14.553Z,-1.17
2022-11-23T21:44:18.355Z,-1.05
2022-11-23T21:49:21.562Z,-0.89
2022-11-23T21:54:24.444Z,-0.78
2022-11-23T21:59:27.307Z,-0.84
2022-11-23T22:09:51.231Z,-0.87
2022-11-23T22:14:54.511Z,-0.87
2022-11-23T22:19:57.819Z,-0.91
2022-11-23T22:25:01.043Z,-0.87
2022-11-23T22:30:05.342Z,-0.86
2022-11-23T22:35:08.978Z,-0.88
2022-11-23T22:40:12.971Z,-1.00
2022-11-23T22:45:16.324Z,-1.01
2022-11-23T22:50:19.645Z,-1.02
2022-11-23T22:55:22.898Z,-1.08
2022-11-23T23:00:26.271Z,-1.16
2022-11-23T23:05:29.474Z,-1.13
2022-11-23T23:10:35.368Z,-0.99
2022-11-23T23:15:38.622Z,-0.99
2022-11-23T23:20:42.807Z,-1.02
2022-11-23T23:25:46.023Z,-1.03
2022-11-23T23:30:49.307Z,-0.97
2022-11-23T23:35:52.818Z,-0.88
2022-11-23T23:40:56.272Z,-0.78
2022-11-23T23:46:02.111Z,-0.72
2022-11-23T23:51:14.381Z,-0.79
2022-11-23T23:56:24.620Z,-0.96
